Time;durP1;ratioP1;P1;durP2;ratioP2;P2;SDS_P1;SDS_P2;PMS_P1;PMS_P2;Temp;Humidity;BMP_temperature;BMP_pressure;BME280_temperature;BME280_humidity;BME280_pressure;Samples;Min_cycle;Max_cycle;Signal;HPM_P1;HPM_P2
2024/03/18 00:01:00;;;;;;;31.80;19.40;;;10.40;99.90;;;;;;813946;177;26393;-84
2024/03/18 00:03:27;;;;;;;28.50;17.07;;;10.50;99.90;;;;;;812539;177;26753;-83
2024/03/18 00:05:53;;;;;;;31.73;18.70;;;10.40;99.90;;;;;;796114;179;26441;-83
2024/03/18 00:08:21;;;;;;;26.17;15.90;;;10.40;99.90;;;;;;811535;173;26435;-83
2024/03/18 00:10:48;;;;;;;30.30;17.80;;;10.40;99.90;;;;;;825567;170;27043;-84
2024/03/18 00:13:14;;;;;;;33.07;19.17;;;10.40;99.90;;;;;;812748;177;26405;-83
2024/03/18 00:15:41;;;;;;;26.73;17.47;;;10.40;99.90;;;;;;787426;179;26375;-82
2024/03/18 00:18:08;;;;;;;28.20;17.53;;;10.40;99.90;;;;;;818579;173;26406;-83
2024/03/18 00:20:34;;;;;;;30.03;16.43;;;10.40;99.90;;;;;;813161;174;26600;-83
2024/03/18 00:23:01;;;;;;;26.10;15.97;;;10.40;99.90;;;;;;813273;177;26484;-83
2024/03/18 00:25:28;;;;;;;27.17;16.27;;;10.40;99.90;;;;;;812948;176;26370;-82
2024/03/18 00:27:55;;;;;;;30.90;17.37;;;10.30;99.90;;;;;;814423;176;26358;-84
2024/03/18 00:30:22;;;;;;;24.53;15.87;;;10.40;99.90;;;;;;793751;179;26633;-84
2024/03/18 00:32:50;;;;;;;27.47;14.97;;;10.40;99.90;;;;;;823598;175;26406;-83
2024/03/18 00:35:17;;;;;;;25.10;15.37;;;10.30;99.90;;;;;;822284;174;26435;-83
2024/03/18 00:37:44;;;;;;;27.90;15.50;;;10.30;99.90;;;;;;812614;174;26403;-83
2024/03/18 00:40:11;;;;;;;23.73;15.70;;;10.30;99.90;;;;;;824406;173;26412;-83
2024/03/18 00:42:37;;;;;;;30.30;15.70;;;10.30;99.90;;;;;;816690;176;26366;-82
2024/03/18 00:45:05;;;;;;;27.57;15.63;;;10.30;99.90;;;;;;825631;173;26422;-83
2024/03/18 00:47:33;;;;;;;27.03;16.43;;;10.30;99.90;;;;;;820321;171;26432;-83
2024/03/18 00:49:59;;;;;;;28.83;16.80;;;10.30;99.90;;;;;;802995;177;26440;-83
2024/03/18 00:52:25;;;;;;;32.80;17.93;;;10.40;99.90;;;;;;806142;176;26410;-83
2024/03/18 00:54:52;;;;;;;29.30;18.53;;;10.40;99.90;;;;;;823153;174;27170;-84
2024/03/18 00:57:19;;;;;;;27.13;17.43;;;10.40;99.90;;;;;;800982;177;26417;-84
2024/03/18 00:59:45;;;;;;;27.97;17.00;;;10.40;99.90;;;;;;812066;175;27937;-84
2024/03/18 01:02:12;;;;;;;29.47;17.80;;;10.30;99.90;;;;;;813033;177;26406;-84
2024/03/18 01:04:39;;;;;;;29.40;17.70;;;10.40;99.90;;;;;;796500;179;27109;-84
2024/03/18 01:07:06;;;;;;;34.83;19.30;;;10.30;99.90;;;;;;816935;174;26395;-84
2024/03/18 01:09:32;;;;;;;32.03;18.10;;;10.30;99.90;;;;;;815715;173;26462;-83
2024/03/18 01:11:59;;;;;;;37.80;20.30;;;10.30;99.90;;;;;;807840;177;28056;-84
2024/03/18 01:14:26;;;;;;;34.63;19.27;;;10.30;99.90;;;;;;818425;174;28017;-83
2024/03/18 01:16:52;;;;;;;32.50;18.67;;;10.30;99.90;;;;;;824869;173;26410;-84
2024/03/18 01:19:19;;;;;;;35.57;20.47;;;10.30;99.90;;;;;;817860;173;26434;-83
2024/03/18 01:21:45;;;;;;;36.03;19.73;;;10.20;99.90;;;;;;819919;174;27301;-82
2024/03/18 01:24:12;;;;;;;40.77;21.80;;;10.20;99.90;;;;;;806753;176;26393;-83
2024/03/18 01:26:39;;;;;;;37.30;20.80;;;10.20;99.90;;;;;;806616;176;26382;-83
2024/03/18 01:29:06;;;;;;;31.37;19.33;;;10.30;99.90;;;;;;817803;174;26424;-82
2024/03/18 01:31:33;;;;;;;34.70;20.23;;;10.30;99.90;;;;;;805243;177;27652;-81
2024/03/18 01:34:00;;;;;;;35.30;19.47;;;10.30;99.90;;;;;;810137;174;26443;-83
2024/03/18 01:36:26;;;;;;;36.10;21.40;;;10.20;99.90;;;;;;812944;177;26426;-82
2024/03/18 01:38:53;;;;;;;37.03;19.37;;;10.20;99.90;;;;;;811683;176;26726;-82
2024/03/18 01:41:21;;;;;;;40.87;21.03;;;10.30;99.90;;;;;;797568;180;26419;-83
2024/03/18 01:43:47;;;;;;;38.20;21.73;;;10.20;99.90;;;;;;790738;170;26705;-78
2024/03/18 01:46:14;;;;;;;40.33;22.67;;;10.20;99.90;;;;;;781612;182;26452;-79
2024/03/18 01:48:53;;;;;;;;;;;;;;;;;;;;;
2024/03/18 01:51:21;;;;;;;42.73;23.40;;;10.20;99.90;;;;;;778314;183;26476;-79
2024/03/18 01:53:54;;;;;;;37.40;21.47;;;10.20;99.90;;;;;;788655;180;26459;-78
2024/03/18 01:56:24;;;;;;;42.10;22.07;;;10.20;99.90;;;;;;781431;183;26487;-79
2024/03/18 01:58:56;;;;;;;44.33;24.27;;;10.20;99.90;;;;;;784991;182;26444;-78
2024/03/18 02:01:25;;;;;;;40.33;22.00;;;10.20;99.90;;;;;;783141;182;26503;-79
2024/03/18 02:03:54;;;;;;;38.47;21.90;;;10.20;99.90;;;;;;770277;186;26501;-80
2024/03/18 02:06:25;;;;;;;48.33;22.63;;;10.20;99.90;;;;;;777372;183;26532;-78
2024/03/18 02:08:59;;;;;;;40.77;23.37;;;10.20;99.90;;;;;;780554;183;26478;-79
2024/03/18 02:11:30;;;;;;;45.47;22.47;;;10.20;99.90;;;;;;772109;183;27110;-79
2024/03/18 02:14:00;;;;;;;47.07;23.13;;;10.20;99.90;;;;;;768886;183;26647;-81
2024/03/18 02:16:33;;;;;;;37.93;21.80;;;10.20;99.90;;;;;;776154;183;26552;-78
2024/03/18 02:19:01;;;;;;;48.20;24.50;;;10.20;99.90;;;;;;775037;183;26529;-80
2024/03/18 02:21:32;;;;;;;47.00;23.17;;;10.20;99.90;;;;;;758270;187;26536;-77
2024/03/18 02:24:05;;;;;;;40.37;21.83;;;10.20;99.90;;;;;;770067;183;27040;-77
2024/03/18 02:26:36;;;;;;;34.27;20.83;;;10.20;99.90;;;;;;769817;185;26496;-78
2024/03/18 02:29:02;;;;;;;41.87;22.33;;;10.20;99.90;;;;;;773682;184;26563;-79
2024/03/18 02:31:31;;;;;;;39.90;21.90;;;10.10;99.90;;;;;;772182;181;26515;-78
2024/03/18 02:34:00;;;;;;;40.43;22.10;;;10.20;99.90;;;;;;763188;187;26650;-78
2024/03/18 02:36:30;;;;;;;44.20;24.17;;;10.20;99.90;;;;;;774489;183;26676;-78
2024/03/18 02:38:57;;;;;;;43.47;23.60;;;10.20;99.90;;;;;;775935;184;26485;-79
2024/03/18 02:41:24;;;;;;;42.67;22.13;;;10.30;99.90;;;;;;771742;183;26476;-79
2024/03/18 02:43:50;;;;;;;40.03;23.77;;;10.20;99.90;;;;;;774010;183;27239;-76
2024/03/18 02:46:17;;;;;;;45.60;25.13;;;10.30;99.90;;;;;;773987;183;27021;-78
2024/03/18 02:48:44;;;;;;;45.43;24.90;;;10.30;99.90;;;;;;767305;182;26488;-78
2024/03/18 02:51:10;;;;;;;43.60;23.53;;;10.30;99.90;;;;;;776123;183;26478;-78
2024/03/18 02:53:37;;;;;;;41.10;23.63;;;10.30;99.90;;;;;;772887;183;26520;-77
2024/03/18 02:56:04;;;;;;;40.37;22.43;;;10.30;99.90;;;;;;771213;180;26648;-77
2024/03/18 02:58:31;;;;;;;49.67;24.90;;;10.30;99.90;;;;;;756073;188;26488;-77
2024/03/18 03:01:04;;;;;;;46.90;23.03;;;10.30;99.90;;;;;;772529;183;26493;-77
2024/03/18 03:03:36;;;;;;;43.50;23.60;;;10.20;99.90;;;;;;779871;183;26495;-79
2024/03/18 03:06:05;;;;;;;49.53;25.03;;;10.20;99.90;;;;;;781983;183;27635;-80
2024/03/18 03:08:38;;;;;;;43.30;22.70;;;10.20;99.90;;;;;;781211;183;26474;-78
2024/03/18 03:11:09;;;;;;;41.97;23.13;;;10.20;99.90;;;;;;763483;186;26491;-79
2024/03/18 03:13:41;;;;;;;52.63;27.63;;;10.20;99.90;;;;;;776972;183;26518;-78
2024/03/18 03:16:12;;;;;;;44.07;22.97;;;10.30;99.90;;;;;;783141;178;26469;-77
2024/03/18 03:18:42;;;;;;;47.23;25.80;;;10.20;99.90;;;;;;774996;183;26474;-79
2024/03/18 03:21:16;;;;;;;42.40;23.80;;;10.20;99.90;;;;;;758676;187;26557;-79
2024/03/18 03:23:45;;;;;;;46.43;24.37;;;10.20;99.90;;;;;;779898;182;26526;-81
2024/03/18 03:26:16;;;;;;;49.00;25.27;;;10.20;99.90;;;;;;780707;183;26479;-80
2024/03/18 03:28:46;;;;;;;45.93;24.53;;;10.20;99.90;;;;;;779903;183;26455;-80
2024/03/18 03:31:17;;;;;;;52.87;26.87;;;10.20;99.90;;;;;;768614;182;26477;-81
2024/03/18 03:33:47;;;;;;;53.20;26.53;;;10.20;99.90;;;;;;779354;183;26505;-79
2024/03/18 03:36:17;;;;;;;50.10;25.70;;;10.20;99.90;;;;;;781679;183;26452;-79
2024/03/18 03:38:47;;;;;;;53.20;25.97;;;10.20;99.90;;;;;;780850;183;27021;-79
2024/03/18 03:41:17;;;;;;;47.40;25.63;;;10.20;99.90;;;;;;776580;184;27059;-81
2024/03/18 03:43:49;;;;;;;59.13;27.87;;;10.20;99.90;;;;;;780710;182;26573;-79
2024/03/18 03:46:17;;;;;;;51.97;26.37;;;10.20;99.90;;;;;;778779;181;27666;-77
2024/03/18 03:48:45;;;;;;;52.00;26.33;;;10.20;99.90;;;;;;780032;181;26478;-80
2024/03/18 03:51:25;;;;;;;53.00;25.57;;;10.20;99.90;;;;;;779244;183;26494;-81
2024/03/18 03:53:53;;;;;;;54.37;25.77;;;10.20;99.90;;;;;;779915;183;26613;-78
2024/03/18 03:56:21;;;;;;;52.17;27.30;;;10.20;99.90;;;;;;782265;183;26522;-80
2024/03/18 03:58:52;;;;;;;48.90;25.73;;;10.20;99.90;;;;;;778064;183;28129;-80
2024/03/18 04:01:21;;;;;;;60.50;27.80;;;10.20;99.90;;;;;;778936;183;26482;-80
2024/03/18 04:03:56;;;;;;;58.30;27.47;;;10.20;99.90;;;;;;783717;183;26479;-80
2024/03/18 04:06:27;;;;;;;56.60;27.50;;;10.20;99.90;;;;;;779513;183;26474;-78
2024/03/18 04:08:58;;;;;;;62.43;28.50;;;10.20;99.90;;;;;;779926;183;26699;-81
2024/03/18 04:11:29;;;;;;;58.00;26.93;;;10.20;99.90;;;;;;778746;182;27036;-79
2024/03/18 04:14:06;;;;;;;54.33;26.63;;;10.20;99.90;;;;;;782966;183;26457;-79
2024/03/18 04:16:36;;;;;;;55.63;26.80;;;10.30;99.90;;;;;;780205;183;26466;-78
2024/03/18 04:19:11;;;;;;;59.90;27.23;;;10.20;99.90;;;;;;766157;186;26564;-78
2024/03/18 04:21:42;;;;;;;55.30;26.87;;;10.20;99.90;;;;;;776047;182;26495;-80
2024/03/18 04:24:08;;;;;;;52.83;25.03;;;10.20;99.90;;;;;;757521;186;26568;-80
2024/03/18 04:26:42;;;;;;;57.60;26.27;;;10.20;99.90;;;;;;777515;182;26483;-80
2024/03/18 04:29:11;;;;;;;57.03;28.47;;;10.20;99.90;;;;;;768840;186;26483;-79
2024/03/18 04:31:40;;;;;;;56.70;27.40;;;10.20;99.90;;;;;;782982;182;26462;-78
2024/03/18 04:34:08;;;;;;;69.03;28.73;;;10.20;99.90;;;;;;771240;182;26480;-80
2024/03/18 04:36:40;;;;;;;56.80;27.23;;;10.20;99.90;;;;;;758340;187;26538;-79
2024/03/18 04:39:09;;;;;;;57.97;26.77;;;10.20;99.90;;;;;;773021;180;26485;-79
2024/03/18 04:41:43;;;;;;;62.33;27.07;;;10.20;99.90;;;;;;759301;187;26522;-78
2024/03/18 04:44:12;;;;;;;59.77;28.43;;;10.20;99.90;;;;;;770423;184;27087;-79
2024/03/18 04:46:43;;;;;;;60.73;27.33;;;10.20;99.90;;;;;;775572;182;26510;-78
2024/03/18 04:49:12;;;;;;;55.80;26.57;;;10.20;99.90;;;;;;780409;183;26495;-79
2024/03/18 04:51:39;;;;;;;56.73;25.93;;;10.20;99.90;;;;;;767867;184;26635;-79
2024/03/18 04:54:27;;;;;;;54.63;26.97;;;10.20;99.90;;;;;;776187;182;26528;-80
2024/03/18 04:56:55;;;;;;;64.43;28.17;;;10.10;99.90;;;;;;758409;187;26675;-78
2024/03/18 04:59:27;;;;;;;61.40;28.87;;;10.00;99.90;;;;;;780793;182;26651;-80
2024/03/18 05:02:05;;;;;;;60.07;27.87;;;10.10;99.90;;;;;;767363;187;26552;-79
2024/03/18 05:04:34;;;;;;;59.40;26.63;;;10.10;99.90;;;;;;779025;183;26481;-79
2024/03/18 05:07:04;;;;;;;58.00;27.27;;;10.00;99.90;;;;;;766967;182;26484;-80
2024/03/18 05:09:34;;;;;;;62.77;28.27;;;10.00;99.90;;;;;;756683;187;26709;-80
2024/03/18 05:12:10;;;;;;;54.57;27.93;;;10.00;99.90;;;;;;774000;181;26541;-79
2024/03/18 05:14:42;;;;;;;60.77;28.70;;;9.90;99.90;;;;;;759211;185;26492;-79
2024/03/18 05:17:19;;;;;;;60.47;27.00;;;9.90;99.90;;;;;;777463;183;26509;-77
2024/03/18 05:19:53;;;;;;;58.63;26.53;;;9.90;99.90;;;;;;775583;183;26504;-80
2024/03/18 05:22:28;;;;;;;55.13;26.73;;;9.90;99.90;;;;;;777144;183;26450;-81
2024/03/18 05:25:30;;;;;;;62.43;27.37;;;9.90;99.90;;;;;;782412;181;27018;-81
2024/03/18 05:27:56;;;;;;;61.37;27.50;;;10.00;99.90;;;;;;777989;181;26486;-80
2024/03/18 05:30:30;;;;;;;58.00;28.03;;;9.90;99.90;;;;;;782301;183;26782;-80
2024/03/18 05:33:19;;;;;;;60.20;26.97;;;9.90;99.90;;;;;;776676;181;26483;-80
2024/03/18 05:36:04;;;;;;;54.40;25.93;;;9.90;99.90;;;;;;783213;179;26919;-80
2024/03/18 05:41:24;;;;;;;57.53;26.93;;;9.90;99.90;;;;;;773622;185;26509;-78
2024/03/18 05:44:27;;;;;;;60.37;26.67;;;9.90;99.90;;;;;;755504;186;26527;-79
2024/03/18 05:47:04;;;;;;;55.27;26.60;;;9.90;99.90;;;;;;766376;183;26452;-78
2024/03/18 05:49:35;;;;;;;59.70;27.33;;;9.90;99.90;;;;;;779453;179;26443;-77
2024/03/18 05:52:08;;;;;;;55.90;25.87;;;9.80;99.90;;;;;;771301;185;26498;-77
2024/03/18 05:54:39;;;;;;;58.90;26.03;;;9.80;99.90;;;;;;772386;185;26484;-77
2024/03/18 05:57:14;;;;;;;59.60;27.37;;;9.80;99.90;;;;;;777150;183;26520;-78
2024/03/18 05:59:46;;;;;;;61.03;26.43;;;9.80;99.90;;;;;;782791;178;26448;-77
2024/03/18 06:02:15;;;;;;;59.43;27.07;;;9.90;99.90;;;;;;770754;185;26605;-77
2024/03/18 06:04:49;;;;;;;61.03;27.70;;;9.90;99.90;;;;;;773482;183;26486;-78
2024/03/18 06:07:27;;;;;;;54.77;26.43;;;10.00;99.90;;;;;;764875;186;26509;-78
2024/03/18 06:09:58;;;;;;;57.00;25.67;;;10.00;99.90;;;;;;776704;183;26535;-78
2024/03/18 06:15:09;;;;;;;55.87;26.60;;;10.00;99.90;;;;;;773218;183;26478;-77
2024/03/18 06:17:38;;;;;;;54.33;26.50;;;10.10;99.90;;;;;;783561;178;26492;-80
2024/03/18 06:20:11;;;;;;;47.80;24.00;;;10.10;99.90;;;;;;767095;186;26507;-76
2024/03/18 06:22:49;;;;;;;49.03;24.83;;;10.20;99.90;;;;;;783673;183;26448;-77
2024/03/18 06:27:53;;;;;;;47.23;23.67;;;10.20;99.90;;;;;;779517;179;26610;-79
2024/03/18 06:30:27;;;;;;;45.33;24.33;;;10.20;99.90;;;;;;771100;184;26512;-78
2024/03/18 06:32:57;;;;;;;42.70;22.60;;;10.20;99.90;;;;;;781217;179;26474;-78
2024/03/18 06:36:09;;;;;;;;;;;;;;;;;;;;;
2024/03/18 06:38:27;;;;;;;;;;;;;;;;;;;;;
2024/03/18 06:41:13;;;;;;;41.60;21.50;;;10.20;99.90;;;;;;777368;183;26496;-78
2024/03/18 06:43:54;;;;;;;40.97;22.37;;;10.30;99.90;;;;;;782859;182;26497;-79
2024/03/18 06:46:25;;;;;;;38.57;22.40;;;10.40;99.90;;;;;;784060;179;26463;-76
2024/03/18 06:48:52;;;;;;;41.13;20.97;;;10.30;99.90;;;;;;780311;183;26694;-78
2024/03/18 06:51:39;;;;;;;40.37;22.23;;;10.30;99.90;;;;;;768873;183;26531;-79
2024/03/18 06:54:39;;;;;;;39.20;21.33;;;10.30;99.90;;;;;;779462;183;26472;-80
2024/03/18 06:56:58;;;;;;;41.73;21.03;;;10.30;99.90;;;;;;773529;184;26498;-79
2024/03/18 06:59:30;;;;;;;42.40;23.37;;;10.30;99.90;;;;;;778566;178;26598;-78
2024/03/18 07:02:04;;;;;;;41.27;22.60;;;10.40;99.90;;;;;;770135;185;26469;-78
2024/03/18 07:04:41;;;;;;;39.00;21.00;;;10.40;99.90;;;;;;781332;183;26495;-79
2024/03/18 07:07:14;;;;;;;34.70;21.13;;;10.40;99.90;;;;;;778778;182;26518;-79
2024/03/18 07:09:46;;;;;;;34.70;19.83;;;10.50;99.90;;;;;;779135;183;26713;-79
2024/03/18 07:12:21;;;;;;;38.93;21.67;;;10.60;99.90;;;;;;768566;184;26659;-78
2024/03/18 07:14:56;;;;;;;37.87;20.87;;;10.70;99.90;;;;;;783069;183;27123;-78
2024/03/18 07:17:25;;;;;;;29.83;18.90;;;10.80;99.90;;;;;;778242;183;27096;-80
2024/03/18 07:20:02;;;;;;;35.03;19.30;;;10.90;99.90;;;;;;767065;187;26485;-79
2024/03/18 07:22:33;;;;;;;29.23;17.27;;;11.00;99.90;;;;;;767743;186;27005;-79
2024/03/18 07:25:17;;;;;;;34.63;20.33;;;10.90;99.90;;;;;;774765;180;26552;-78
2024/03/18 07:27:48;;;;;;;34.60;19.43;;;10.80;99.90;;;;;;765601;187;26477;-79
2024/03/18 07:30:20;;;;;;;34.10;20.80;;;10.90;99.90;;;;;;778534;183;26458;-79
2024/03/18 07:32:51;;;;;;;28.83;19.30;;;11.00;99.90;;;;;;767388;186;26480;-78
2024/03/18 07:35:25;;;;;;;32.23;19.93;;;11.10;99.90;;;;;;768043;186;26519;-78
2024/03/18 07:37:57;;;;;;;42.50;21.03;;;11.10;99.90;;;;;;780075;182;27337;-78
2024/03/18 07:40:25;;;;;;;36.40;21.13;;;11.20;99.90;;;;;;781864;183;26486;-79
2024/03/18 07:43:00;;;;;;;32.13;19.67;;;11.30;99.90;;;;;;779965;183;26621;-79
2024/03/18 07:45:28;;;;;;;31.43;20.03;;;11.40;99.90;;;;;;775252;170;27019;-81
2024/03/18 07:48:02;;;;;;;29.30;16.93;;;11.40;99.90;;;;;;797455;179;27003;-79
2024/03/18 07:50:21;;;;;;;25.87;17.33;;;11.50;99.90;;;;;;779929;182;26641;-81
2024/03/18 07:52:48;;;;;;;31.40;19.10;;;11.60;99.90;;;;;;795782;180;26470;-79
2024/03/18 07:55:15;;;;;;;31.43;17.87;;;11.60;99.90;;;;;;793039;178;26491;-78
2024/03/18 07:57:44;;;;;;;29.63;20.17;;;11.70;99.90;;;;;;789127;178;26491;-80
2024/03/18 08:02:49;;;;;;;26.67;17.77;;;11.80;99.90;;;;;;788057;179;26430;-80
2024/03/18 08:05:16;;;;;;;31.43;19.33;;;11.80;99.90;;;;;;789061;179;26472;-79
2024/03/18 08:07:43;;;;;;;24.33;17.77;;;11.80;99.90;;;;;;786531;180;26519;-80
2024/03/18 08:10:09;;;;;;;25.57;17.53;;;11.80;99.90;;;;;;785734;179;26471;-79
2024/03/18 08:12:38;;;;;;;26.57;18.30;;;11.70;99.90;;;;;;787377;177;26453;-79
2024/03/18 08:15:24;;;;;;;34.40;19.87;;;11.70;99.90;;;;;;784557;180;26534;-80
2024/03/18 08:20:47;;;;;;;31.87;18.83;;;12.00;99.90;;;;;;787700;178;26498;-82
2024/03/18 08:28:46;;;;;;;28.43;18.57;;;12.20;99.90;;;;;;823225;173;26388;-85
2024/03/18 08:31:13;;;;;;;29.97;19.63;;;12.30;99.90;;;;;;822782;173;26555;-81
2024/03/18 08:33:39;;;;;;;28.97;18.17;;;12.40;99.90;;;;;;805997;177;26719;-80
2024/03/18 08:36:06;;;;;;;28.80;18.83;;;12.60;99.90;;;;;;804566;177;26442;-81
2024/03/18 08:38:34;;;;;;;24.00;17.60;;;12.70;99.90;;;;;;795055;179;26446;-81
2024/03/18 08:43:44;;;;;;;22.17;16.37;;;13.10;99.90;;;;;;796203;173;26466;-85
2024/03/18 08:46:18;;;;;;;27.70;18.47;;;13.00;99.90;;;;;;808978;177;26429;-85
2024/03/18 08:48:45;;;;;;;23.47;16.70;;;12.90;99.90;;;;;;798233;177;27014;-88
2024/03/18 08:51:14;;;;;;;28.03;18.03;;;12.80;99.90;;;;;;787634;182;26993;-86
2024/03/18 08:53:40;;;;;;;24.43;16.13;;;12.80;99.90;;;;;;791614;179;26493;-86
2024/03/18 08:56:13;;;;;;;25.40;16.83;;;12.80;99.90;;;;;;790419;180;26462;-87
2024/03/18 08:58:40;;;;;;;26.87;16.47;;;12.70;99.90;;;;;;791518;179;26527;-87
2024/03/18 09:01:08;;;;;;;39.80;20.03;;;12.70;99.90;;;;;;807626;178;26446;-87
2024/03/18 09:03:35;;;;;;;27.10;17.90;;;13.00;99.90;;;;;;796005;178;26473;-87
2024/03/18 09:06:03;;;;;;;26.10;16.90;;;13.30;99.90;;;;;;800828;179;27038;-86
2024/03/18 09:08:30;;;;;;;26.27;18.63;;;13.60;99.90;;;;;;805828;176;27033;-86
2024/03/18 09:10:57;;;;;;;22.20;16.57;;;13.80;99.90;;;;;;798642;178;26450;-87
2024/03/18 09:13:28;;;;;;;25.20;15.60;;;13.80;99.90;;;;;;803283;178;26418;-87
2024/03/18 09:16:00;;;;;;;28.23;17.17;;;14.00;99.90;;;;;;802713;178;26405;-84
2024/03/18 09:18:32;;;;;;;24.23;17.13;;;14.20;99.90;;;;;;800074;178;26498;-86
2024/03/18 09:20:59;;;;;;;24.50;16.80;;;14.30;99.90;;;;;;806053;177;26417;-86
2024/03/18 09:23:25;;;;;;;19.27;14.83;;;14.60;99.90;;;;;;800823;177;26430;-85
2024/03/18 09:25:52;;;;;;;23.03;14.30;;;14.70;99.90;;;;;;802122;178;26483;-85
2024/03/18 09:28:19;;;;;;;27.67;18.77;;;14.30;99.90;;;;;;803783;178;26414;-86
2024/03/18 09:30:45;;;;;;;25.47;16.63;;;14.20;99.90;;;;;;800096;177;26456;-86
2024/03/18 09:33:12;;;;;;;18.90;13.80;;;14.30;99.90;;;;;;802694;177;26426;-86
2024/03/18 09:35:38;;;;;;;19.40;11.90;;;14.50;99.90;;;;;;795351;178;26431;-86
2024/03/18 09:38:05;;;;;;;19.90;12.27;;;14.30;99.90;;;;;;801162;177;26521;-87
2024/03/18 09:40:32;;;;;;;18.47;12.50;;;14.40;99.90;;;;;;801112;177;26992;-86
2024/03/18 09:42:58;;;;;;;19.83;11.37;;;14.50;99.90;;;;;;794666;181;26639;-86
2024/03/18 09:45:25;;;;;;;20.53;13.77;;;14.60;99.90;;;;;;799570;178;26434;-86
2024/03/18 09:47:52;;;;;;;16.23;11.83;;;14.70;99.90;;;;;;796176;178;26421;-86
2024/03/18 09:50:20;;;;;;;22.60;13.60;;;14.80;99.90;;;;;;805897;178;26442;-87
2024/03/18 09:52:46;;;;;;;19.83;11.70;;;14.90;99.90;;;;;;800886;178;26503;-86
2024/03/18 09:55:27;;;;;;;18.03;11.40;;;15.00;99.90;;;;;;797128;178;26467;-86
2024/03/18 09:57:53;;;;;;;16.00;8.50;;;15.00;99.90;;;;;;800796;178;26437;-86
2024/03/18 10:00:19;;;;;;;13.10;7.23;;;15.20;99.90;;;;;;805788;178;26442;-87
2024/03/18 10:02:47;;;;;;;13.63;7.80;;;15.30;99.90;;;;;;805718;178;26434;-86
2024/03/18 10:05:14;;;;;;;12.60;8.00;;;15.70;99.90;;;;;;807673;178;26421;-85
2024/03/18 10:07:41;;;;;;;15.33;8.87;;;15.60;99.90;;;;;;801725;178;28039;-85
2024/03/18 10:10:16;;;;;;;17.37;9.63;;;15.00;99.90;;;;;;798912;178;26504;-87
2024/03/18 10:12:43;;;;;;;15.47;7.97;;;15.00;99.90;;;;;;788737;181;26441;-85
2024/03/18 10:15:11;;;;;;;17.57;9.27;;;15.20;99.90;;;;;;790460;178;26457;-84
2024/03/18 10:17:39;;;;;;;14.37;7.57;;;15.30;99.90;;;;;;786857;182;26454;-84
2024/03/18 10:20:15;;;;;;;14.30;8.30;;;15.40;99.90;;;;;;788493;179;26460;-86
2024/03/18 10:22:43;;;;;;;15.17;8.97;;;15.60;99.90;;;;;;791587;180;27011;-84
2024/03/18 10:25:09;;;;;;;12.93;5.33;;;15.60;99.90;;;;;;787718;180;26529;-85
2024/03/18 10:27:36;;;;;;;13.40;6.90;;;15.50;99.90;;;;;;788958;179;26468;-85
2024/03/18 10:30:03;;;;;;;11.97;5.10;;;15.40;99.90;;;;;;793140;179;26468;-84
2024/03/18 10:32:30;;;;;;;10.93;3.80;;;15.70;99.90;;;;;;788502;181;26606;-85
2024/03/18 10:34:57;;;;;;;8.53;3.43;;;15.80;99.90;;;;;;788282;182;26558;-85
2024/03/18 10:37:24;;;;;;;9.43;3.60;;;15.70;99.90;;;;;;786785;182;26482;-84
2024/03/18 10:40:05;;;;;;;11.33;4.10;;;15.60;99.90;;;;;;788086;178;26461;-85
2024/03/18 10:42:30;;;;;;;8.33;4.40;;;15.60;99.90;;;;;;789555;181;26477;-84
2024/03/18 10:44:58;;;;;;;13.87;5.70;;;15.70;99.90;;;;;;795051;181;26998;-85
2024/03/18 10:47:25;;;;;;;19.43;5.47;;;15.80;99.90;;;;;;789763;181;27097;-85
2024/03/18 10:49:51;;;;;;;9.17;5.20;;;15.90;99.90;;;;;;786462;182;26494;-85
2024/03/18 10:52:18;;;;;;;13.27;4.07;;;16.10;99.90;;;;;;799490;178;26436;-84
2024/03/18 10:54:45;;;;;;;11.93;4.00;;;15.90;99.90;;;;;;786617;181;26453;-86
2024/03/18 10:57:12;;;;;;;13.30;4.73;;;16.30;99.90;;;;;;793404;180;26453;-86
2024/03/18 10:59:40;;;;;;;8.70;3.60;;;17.60;99.90;;;;;;804875;178;26485;-86
2024/03/18 11:02:07;;;;;;;6.93;3.33;;;18.80;99.90;;;;;;797056;177;26435;-84
2024/03/18 11:04:34;;;;;;;9.77;3.43;;;19.30;97.40;;;;;;784990;183;26457;-86
2024/03/18 11:07:00;;;;;;;10.97;3.47;;;18.30;99.90;;;;;;800218;179;26444;-87
2024/03/18 11:09:27;;;;;;;9.80;3.77;;;17.20;99.90;;;;;;788954;179;26465;-86
2024/03/18 11:11:54;;;;;;;10.10;4.37;;;16.70;99.90;;;;;;787314;182;26453;-86
2024/03/18 11:14:27;;;;;;;12.27;4.77;;;16.60;99.90;;;;;;805363;177;26446;-87
2024/03/18 11:16:53;;;;;;;11.10;4.23;;;16.70;99.90;;;;;;796328;180;26990;-86
2024/03/18 11:19:20;;;;;;;12.83;3.80;;;17.10;99.90;;;;;;785884;183;26521;-86
2024/03/18 11:22:00;;;;;;;12.80;4.03;;;17.30;99.90;;;;;;801508;179;26494;-83
2024/03/18 11:24:27;;;;;;;9.73;3.50;;;17.30;99.90;;;;;;794803;179;27004;-85
2024/03/18 11:26:53;;;;;;;12.07;4.17;;;17.90;99.90;;;;;;808675;178;26429;-86
2024/03/18 11:29:20;;;;;;;9.10;3.17;;;18.60;99.90;;;;;;790912;181;26460;-86
2024/03/18 11:31:47;;;;;;;10.17;3.80;;;19.00;97.30;;;;;;787964;180;27091;-86
2024/03/18 11:34:20;;;;;;;14.07;3.63;;;19.70;98.80;;;;;;803253;179;26441;-85
2024/03/18 11:36:41;;;;;;;14.07;7.27;;;20.30;93.00;;;;;;790421;180;26449;-84
2024/03/18 11:39:12;;;;;;;18.87;8.40;;;20.00;97.80;;;;;;787885;182;26497;-84
2024/03/18 11:41:36;;;;;;;12.20;5.67;;;20.60;99.90;;;;;;792744;176;26411;-85
2024/03/18 11:44:03;;;;;;;9.43;3.80;;;20.60;89.40;;;;;;790859;182;26432;-85
2024/03/18 11:46:30;;;;;;;39.33;21.47;;;20.10;93.30;;;;;;790943;181;26444;-85
2024/03/18 11:49:02;;;;;;;18.67;9.73;;;21.10;94.70;;;;;;806600;178;26478;-85
2024/03/18 11:51:28;;;;;;;27.07;12.93;;;21.00;87.00;;;;;;798815;179;26463;-84
2024/03/18 11:53:58;;;;;;;11.23;4.70;;;21.10;86.30;;;;;;798768;180;26505;-86
2024/03/18 11:56:23;;;;;;;56.80;25.80;;;21.70;91.30;;;;;;787950;179;26513;-87
2024/03/18 11:58:48;;;;;;;19.37;6.67;;;22.70;81.00;;;;;;801592;177;27020;-86
2024/03/18 12:01:17;;;;;;;41.97;26.47;;;22.40;76.70;;;;;;801834;179;26507;-86
2024/03/18 12:03:43;;;;;;;94.23;50.30;;;22.10;77.60;;;;;;801802;179;26542;-86
2024/03/18 12:06:09;;;;;;;12.50;5.00;;;21.90;83.50;;;;;;801331;179;26480;-84
2024/03/18 12:08:36;;;;;;;11.90;4.47;;;21.60;76.00;;;;;;798361;178;26474;-84
2024/03/18 12:11:03;;;;;;;17.77;7.30;;;20.60;89.20;;;;;;797869;180;26471;-85
2024/03/18 12:13:29;;;;;;;11.10;5.40;;;20.80;88.70;;;;;;798650;179;26447;-84
2024/03/18 12:15:56;;;;;;;12.60;4.13;;;21.00;90.60;;;;;;794959;180;26458;-85
2024/03/18 12:18:23;;;;;;;9.80;3.90;;;22.00;84.60;;;;;;797322;177;26471;-85
2024/03/18 12:20:54;;;;;;;13.13;4.53;;;21.00;90.90;;;;;;797902;179;26455;-86
2024/03/18 12:30:57;;;;;;;12.77;6.63;;;18.40;98.00;;;;;;788988;181;26456;-86
2024/03/18 12:33:24;;;;;;;18.73;9.00;;;19.70;97.60;;;;;;793423;181;26529;-87
2024/03/18 12:35:51;;;;;;;22.37;13.60;;;21.80;88.70;;;;;;786422;182;26649;-85
2024/03/18 12:38:18;;;;;;;20.40;11.97;;;22.50;84.70;;;;;;789720;180;26460;-86
2024/03/18 12:40:45;;;;;;;14.17;5.83;;;23.60;70.40;;;;;;795321;180;26442;-85
2024/03/18 12:43:11;;;;;;;11.70;5.20;;;22.50;79.60;;;;;;790130;180;26460;-85
2024/03/18 12:45:39;;;;;;;10.33;5.30;;;20.60;91.60;;;;;;807573;178;27010;-87
2024/03/18 12:48:05;;;;;;;10.87;5.83;;;19.20;96.00;;;;;;788423;182;26457;-86
2024/03/18 12:50:32;;;;;;;12.13;5.20;;;18.30;99.70;;;;;;792094;180;26438;-85
2024/03/18 12:53:01;;;;;;;14.40;5.73;;;17.60;99.90;;;;;;791421;181;26453;-86
2024/03/18 12:55:25;;;;;;;17.73;9.77;;;18.00;99.90;;;;;;789815;181;26461;-86
2024/03/18 12:57:52;;;;;;;15.43;5.93;;;20.20;94.00;;;;;;789150;181;26436;-85
2024/03/18 13:00:19;;;;;;;10.90;4.40;;;20.90;88.70;;;;;;795527;179;26450;-86
2024/03/18 13:02:46;;;;;;;10.10;4.80;;;21.20;88.90;;;;;;789451;181;26595;-87
2024/03/18 13:05:12;;;;;;;10.60;4.60;;;19.90;94.10;;;;;;792186;181;26460;-85
2024/03/18 13:07:39;;;;;;;8.67;4.53;;;19.70;93.50;;;;;;790066;181;26483;-86
2024/03/18 13:10:06;;;;;;;4.93;3.87;;;20.80;93.00;;;;;;793524;178;27032;-86
2024/03/18 13:12:34;;;;;;;8.63;4.70;;;22.60;73.30;;;;;;795942;181;26443;-86
2024/03/18 13:15:01;;;;;;;10.87;4.90;;;23.30;81.70;;;;;;790460;181;26453;-88